Time;durP1;ratioP1;P1;durP2;ratioP2;P2;SDS_P1;SDS_P2;PMS_P1;PMS_P2;Temp;Humidity;BMP_temperature;BMP_pressure;BME280_temperature;BME280_humidity;BME280_pressure;Samples;Min_cycle;Max_cycle;Signal;HPM_P1;HPM_P2
2024/04/12 00:01:03;;;;;;;6.85;5.78;;;9.80;73.50;;;;;;5395587;26;19992;-61
2024/04/12 00:03:31;;;;;;;9.35;6.22;;;9.80;73.50;;;;;;5405033;26;19992;-61
2024/04/12 00:06:05;;;;;;;8.82;6.18;;;9.80;73.40;;;;;;5403169;26;20072;-61
2024/04/12 00:08:31;;;;;;;6.80;5.72;;;9.70;73.40;;;;;;5405339;26;20010;-60
2024/04/12 00:10:59;;;;;;;6.90;5.65;;;9.70;73.50;;;;;;5407244;26;20012;-61
2024/04/12 00:13:31;;;;;;;7.05;5.78;;;9.60;73.60;;;;;;5406365;26;19995;-60
2024/04/12 00:16:03;;;;;;;10.65;5.90;;;9.50;73.70;;;;;;5398614;26;20084;-61
2024/04/12 00:18:29;;;;;;;7.45;5.78;;;9.40;74.70;;;;;;5400984;26;19999;-58
2024/04/12 00:20:58;;;;;;;7.35;5.70;;;9.40;74.20;;;;;;5405612;26;19999;-62
2024/04/12 00:23:26;;;;;;;7.28;5.70;;;9.30;74.40;;;;;;5399260;26;20007;-60
2024/04/12 00:25:55;;;;;;;8.35;6.20;;;9.30;74.60;;;;;;5406191;26;20003;-60
2024/04/12 00:28:22;;;;;;;7.90;6.25;;;9.20;74.60;;;;;;5400644;26;19996;-61
2024/04/12 00:30:48;;;;;;;6.43;5.75;;;9.20;74.70;;;;;;5395549;26;20383;-60
2024/04/12 00:33:19;;;;;;;7.32;6.13;;;9.20;75.80;;;;;;5400028;26;19999;-61
2024/04/12 00:35:49;;;;;;;8.27;6.05;;;9.10;75.00;;;;;;5407616;26;20007;-62
2024/04/12 00:38:16;;;;;;;11.02;5.93;;;9.00;75.10;;;;;;5396602;26;20023;-59
2024/04/12 00:40:46;;;;;;;8.60;5.72;;;9.00;75.30;;;;;;5409281;26;20373;-61
2024/04/12 00:43:18;;;;;;;7.53;5.95;;;8.90;75.40;;;;;;5403567;26;20455;-61
2024/04/12 00:45:45;;;;;;;7.38;5.63;;;8.90;76.00;;;;;;5391233;26;19995;-62
2024/04/12 00:48:14;;;;;;;7.90;5.78;;;8.80;75.60;;;;;;5400175;26;19999;-61
2024/04/12 00:50:42;;;;;;;13.00;6.32;;;8.80;75.70;;;;;;5400856;26;20448;-60
2024/04/12 00:53:09;;;;;;;9.05;6.00;;;8.80;76.10;;;;;;5409427;26;20007;-59
2024/04/12 00:55:39;;;;;;;7.03;5.90;;;8.70;76.30;;;;;;5397326;26;20449;-61
2024/04/12 00:58:15;;;;;;;9.85;5.88;;;8.70;76.50;;;;;;5390480;26;20476;-59
2024/04/12 01:00:46;;;;;;;7.38;5.40;;;8.70;76.50;;;;;;5393264;26;20010;-61
2024/04/12 01:03:15;;;;;;;8.00;5.70;;;8.60;76.30;;;;;;5399217;26;20007;-61
2024/04/12 01:05:41;;;;;;;7.18;5.68;;;8.60;76.20;;;;;;5402070;26;20003;-60
2024/04/12 01:08:07;;;;;;;8.65;6.13;;;8.60;76.30;;;;;;5399149;26;20438;-61
2024/04/12 01:10:36;;;;;;;9.00;5.63;;;8.60;76.50;;;;;;5403683;26;20015;-61
2024/04/12 01:13:04;;;;;;;8.68;6.03;;;8.50;76.50;;;;;;5402283;26;20012;-61
2024/04/12 01:15:37;;;;;;;7.90;5.75;;;8.50;76.60;;;;;;5402180;26;20019;-61
2024/04/12 01:18:04;;;;;;;9.60;6.35;;;8.40;76.60;;;;;;5404654;26;20027;-60
2024/04/12 01:20:35;;;;;;;9.73;6.28;;;8.40;76.80;;;;;;5414301;26;20066;-58
2024/04/12 01:23:03;;;;;;;8.57;6.10;;;8.40;77.20;;;;;;5411036;26;20381;-59
2024/04/12 01:25:29;;;;;;;9.45;6.05;;;8.30;77.30;;;;;;5401565;26;20443;-60
2024/04/12 01:27:58;;;;;;;16.58;6.38;;;8.30;77.50;;;;;;5406002;26;19995;-60
2024/04/12 01:30:24;;;;;;;7.70;5.78;;;8.30;77.60;;;;;;5375821;26;20008;-62
2024/04/12 01:32:53;;;;;;;8.15;5.68;;;8.30;77.70;;;;;;5401331;26;19992;-59
2024/04/12 01:35:22;;;;;;;6.88;6.18;;;8.30;77.70;;;;;;5399029;26;20336;-60
2024/04/12 01:37:51;;;;;;;10.38;5.95;;;8.30;77.80;;;;;;5399360;26;20007;-61
2024/04/12 01:40:17;;;;;;;7.85;6.03;;;8.30;77.70;;;;;;5399058;26;20120;-61
2024/04/12 01:42:43;;;;;;;9.05;5.93;;;8.30;77.50;;;;;;5406149;26;19996;-60
2024/04/12 01:45:16;;;;;;;9.27;5.78;;;8.30;77.30;;;;;;5400775;26;19998;-61
2024/04/12 01:47:43;;;;;;;7.30;5.70;;;8.40;77.30;;;;;;5402431;26;20004;-60
2024/04/12 01:50:24;;;;;;;7.75;5.65;;;8.30;77.10;;;;;;5407370;26;20007;-60
2024/04/12 01:52:53;;;;;;;8.02;5.55;;;8.40;78.00;;;;;;5398380;26;19995;-60
2024/04/12 01:55:21;;;;;;;8.02;6.20;;;8.30;77.00;;;;;;5395102;26;20007;-60
2024/04/12 01:57:47;;;;;;;7.75;6.38;;;8.30;77.20;;;;;;5398881;26;20470;-60
2024/04/12 02:00:16;;;;;;;10.65;6.60;;;8.30;77.30;;;;;;5397141;26;20014;-61
2024/04/12 02:02:43;;;;;;;14.35;6.93;;;8.30;77.50;;;;;;5406175;26;20015;-61
2024/04/12 02:05:09;;;;;;;11.50;7.45;;;8.30;77.60;;;;;;5403055;26;20023;-61
2024/04/12 02:07:39;;;;;;;9.77;6.93;;;8.20;77.70;;;;;;5400320;26;19992;-60
2024/04/12 02:10:11;;;;;;;8.93;7.03;;;8.20;77.90;;;;;;5397768;26;20040;-63
2024/04/12 02:12:40;;;;;;;9.68;7.40;;;8.20;77.90;;;;;;5395525;26;19996;-61
2024/04/12 02:15:25;;;;;;;8.32;7.00;;;8.20;77.70;;;;;;5397557;26;20011;-60
2024/04/12 02:17:57;;;;;;;10.32;6.80;;;8.20;77.70;;;;;;5398136;26;19992;-63
2024/04/12 02:20:36;;;;;;;9.55;6.80;;;8.20;77.50;;;;;;5365346;26;20023;-62
2024/04/12 02:23:06;;;;;;;7.40;6.68;;;8.20;78.10;;;;;;5400880;26;19992;-64
2024/04/12 02:25:36;;;;;;;8.55;6.90;;;8.10;78.10;;;;;;5399557;26;19991;-62
2024/04/12 02:28:09;;;;;;;10.52;7.85;;;8.10;78.10;;;;;;5401912;26;20377;-61
2024/04/12 02:30:42;;;;;;;11.20;7.55;;;8.10;78.20;;;;;;5402055;26;19996;-62
2024/04/12 02:33:16;;;;;;;10.50;7.30;;;8.00;78.20;;;;;;5393925;26;20011;-62
2024/04/12 02:35:42;;;;;;;12.18;8.10;;;8.00;78.60;;;;;;5403737;26;20045;-61
2024/04/12 02:38:16;;;;;;;11.75;7.50;;;8.00;78.40;;;;;;5400595;26;20010;-62
2024/04/12 02:40:46;;;;;;;11.90;7.80;;;7.90;78.90;;;;;;5404188;26;20348;-63
2024/04/12 02:43:15;;;;;;;10.50;7.93;;;7.90;79.00;;;;;;5399284;26;20457;-62
2024/04/12 02:45:51;;;;;;;9.57;8.00;;;7.90;78.80;;;;;;5401407;26;20004;-61
2024/04/12 02:48:20;;;;;;;12.80;8.02;;;7.90;79.40;;;;;;5401473;26;20077;-62
2024/04/12 02:50:48;;;;;;;11.77;8.27;;;7.90;78.90;;;;;;5394217;26;20007;-62
2024/04/12 02:53:18;;;;;;;11.43;7.88;;;7.90;78.90;;;;;;5398414;26;20011;-61
2024/04/12 02:56:11;;;;;;;11.55;7.68;;;7.90;78.90;;;;;;5397141;26;20455;-61
2024/04/12 02:58:44;;;;;;;12.57;7.95;;;7.90;79.30;;;;;;5401771;26;20026;-61
2024/04/12 03:01:18;;;;;;;8.68;7.53;;;7.90;78.90;;;;;;5401988;26;19999;-62
2024/04/12 03:03:45;;;;;;;8.93;7.47;;;7.90;78.60;;;;;;5396665;26;20061;-60
2024/04/12 03:06:12;;;;;;;10.48;7.75;;;7.90;78.40;;;;;;5404081;26;19995;-61
2024/04/12 03:08:40;;;;;;;9.95;8.00;;;8.00;78.40;;;;;;5395438;26;20413;-61
2024/04/12 03:11:22;;;;;;;10.57;7.75;;;8.00;78.20;;;;;;5402502;26;20004;-62
2024/04/12 03:13:50;;;;;;;9.88;7.43;;;7.90;78.20;;;;;;5393462;26;19996;-61
2024/04/12 03:16:18;;;;;;;10.48;7.93;;;7.90;77.90;;;;;;5399495;26;20000;-63
2024/04/12 03:18:45;;;;;;;9.90;7.63;;;7.90;77.90;;;;;;5395421;26;20475;-62
2024/04/12 03:21:15;;;;;;;10.30;7.70;;;7.90;78.00;;;;;;5394866;26;20015;-61
2024/04/12 03:23:46;;;;;;;12.52;7.88;;;7.90;78.00;;;;;;5398207;26;19999;-62
2024/04/12 03:26:12;;;;;;;12.57;8.35;;;7.80;78.00;;;;;;5396369;26;19991;-60
2024/04/12 03:28:39;;;;;;;11.95;8.80;;;7.80;78.00;;;;;;5391252;26;20076;-63
2024/04/12 03:31:07;;;;;;;12.38;8.02;;;7.80;78.20;;;;;;5393802;26;20014;-62
2024/04/12 03:33:35;;;;;;;11.73;8.05;;;7.70;78.20;;;;;;5398016;26;20011;-61
2024/04/12 03:36:09;;;;;;;12.48;8.00;;;7.70;78.30;;;;;;5388182;26;20011;-60
2024/04/12 03:38:46;;;;;;;12.73;8.10;;;7.70;78.40;;;;;;5394169;26;20003;-61
2024/04/12 03:41:11;;;;;;;11.95;7.82;;;7.70;78.40;;;;;;5374242;26;20095;-62
2024/04/12 03:43:37;;;;;;;13.73;8.57;;;7.60;78.40;;;;;;5380661;26;20303;-62
2024/04/12 03:46:02;;;;;;;11.05;8.02;;;7.60;78.30;;;;;;5391877;26;19995;-63
2024/04/12 03:48:33;;;;;;;10.18;8.13;;;7.60;78.40;;;;;;5396406;26;20010;-61
2024/04/12 03:51:06;;;;;;;13.60;8.52;;;7.60;78.50;;;;;;5391818;26;20004;-62
2024/04/12 03:53:32;;;;;;;12.60;7.65;;;7.60;78.50;;;;;;5396895;26;20027;-63
2024/04/12 03:55:58;;;;;;;13.32;7.65;;;7.60;78.50;;;;;;5390302;26;19999;-63
2024/04/12 03:58:24;;;;;;;9.88;7.70;;;7.60;78.60;;;;;;5393821;26;20012;-63
2024/04/12 04:00:56;;;;;;;12.48;7.50;;;7.60;78.50;;;;;;5393203;26;20372;-62
2024/04/12 04:03:30;;;;;;;12.15;7.85;;;7.50;78.20;;;;;;5401339;26;20023;-60
2024/04/12 04:06:11;;;;;;;13.05;8.00;;;7.60;78.20;;;;;;5397825;26;19996;-63
2024/04/12 04:08:48;;;;;;;11.38;7.25;;;7.50;78.10;;;;;;5395976;26;19997;-64
2024/04/12 04:11:17;;;;;;;14.43;7.75;;;7.50;77.90;;;;;;5399948;26;20067;-63
2024/04/12 04:13:47;;;;;;;10.88;7.80;;;7.50;78.00;;;;;;5392675;26;20128;-61
2024/04/12 04:16:16;;;;;;;11.02;7.90;;;7.50;78.20;;;;;;5394305;26;20003;-62
2024/04/12 04:18:48;;;;;;;9.93;7.95;;;7.40;78.20;;;;;;5396602;26;20007;-61
2024/04/12 04:21:14;;;;;;;10.18;7.82;;;7.40;78.10;;;;;;5403208;26;20516;-60
2024/04/12 04:23:42;;;;;;;9.90;7.88;;;7.40;78.10;;;;;;5396571;26;20000;-62
2024/04/12 04:26:08;;;;;;;11.32;7.53;;;7.30;78.10;;;;;;5395762;26;20008;-62
2024/04/12 04:28:35;;;;;;;11.98;8.02;;;7.40;78.20;;;;;;5394145;26;20004;-62
2024/04/12 04:31:05;;;;;;;14.93;8.90;;;7.40;78.20;;;;;;5387586;26;20073;-63
2024/04/12 04:33:35;;;;;;;11.70;9.07;;;7.40;79.10;;;;;;5399784;26;19999;-61
2024/04/12 04:36:09;;;;;;;16.38;9.32;;;7.40;78.50;;;;;;5405382;26;20397;-63
2024/04/12 04:38:38;;;;;;;14.77;10.30;;;7.30;78.30;;;;;;5404737;26;20487;-63
2024/04/12 04:41:07;;;;;;;14.80;11.50;;;7.30;78.60;;;;;;5403198;26;20028;-63
2024/04/12 04:43:33;;;;;;;17.05;10.90;;;7.20;78.60;;;;;;5404337;26;20007;-62
2024/04/12 04:46:10;;;;;;;14.30;10.30;;;7.20;78.80;;;;;;5402634;26;20006;-62
2024/04/12 04:48:36;;;;;;;18.00;10.48;;;7.20;78.90;;;;;;5404475;26;20385;-63
2024/04/12 04:51:02;;;;;;;15.50;10.23;;;7.10;78.90;;;;;;5410389;26;20006;-63
2024/04/12 04:53:29;;;;;;;13.90;9.90;;;7.20;79.10;;;;;;5410155;26;20000;-63
2024/04/12 04:56:00;;;;;;;15.10;9.85;;;7.20;79.20;;;;;;5408499;26;20331;-61
2024/04/12 04:58:28;;;;;;;13.77;9.57;;;7.20;79.20;;;;;;5403864;26;20007;-62
2024/04/12 05:00:54;;;;;;;14.32;9.10;;;7.10;79.20;;;;;;5405589;26;19995;-62
2024/04/12 05:03:19;;;;;;;15.18;9.27;;;7.10;80.20;;;;;;5410482;26;20062;-61
2024/04/12 05:05:49;;;;;;;12.80;8.68;;;7.10;79.40;;;;;;5402981;26;20007;-62
2024/04/12 05:08:16;;;;;;;11.88;8.38;;;7.10;79.40;;;;;;5406775;26;20019;-63
2024/04/12 05:10:42;;;;;;;13.38;8.55;;;7.10;79.40;;;;;;5408964;26;20015;-62
2024/04/12 05:13:10;;;;;;;16.35;8.75;;;7.10;79.60;;;;;;5403217;26;20011;-61
2024/04/12 05:18:08;;;;;;;13.10;8.95;;;7.20;79.80;;;;;;5405503;26;20031;-62
2024/04/12 05:20:41;;;;;;;16.27;9.90;;;7.20;79.80;;;;;;5412809;26;20007;-63
2024/04/12 05:23:15;;;;;;;15.55;9.98;;;7.30;80.10;;;;;;5413026;26;20006;-61
2024/04/12 05:25:41;;;;;;;19.08;11.80;;;7.30;80.10;;;;;;5409886;26;20007;-62
2024/04/12 05:28:07;;;;;;;20.25;10.40;;;7.40;80.00;;;;;;5406386;26;19999;-60
2024/04/12 05:30:36;;;;;;;22.83;11.70;;;7.40;80.10;;;;;;5407462;26;19995;-62
2024/04/12 05:33:05;;;;;;;19.48;11.52;;;7.50;80.50;;;;;;5409717;26;19999;-62
2024/04/12 05:35:31;;;;;;;22.33;13.10;;;7.50;80.50;;;;;;5406063;26;20463;-62
2024/04/12 05:38:01;;;;;;;34.45;18.67;;;7.50;80.30;;;;;;5406514;26;20010;-61
2024/04/12 05:40:28;;;;;;;26.80;14.95;;;7.60;80.40;;;;;;5398505;26;20487;-62
2024/04/12 05:42:53;;;;;;;27.02;14.57;;;7.60;80.40;;;;;;5405315;26;20069;-63
2024/04/12 05:45:19;;;;;;;29.92;14.65;;;7.70;80.60;;;;;;5401727;26;20007;-63
2024/04/12 05:47:54;;;;;;;25.85;15.15;;;7.80;80.60;;;;;;5404964;26;19991;-62
2024/04/12 05:50:25;;;;;;;;;;;7.80;80.70;;;;;;5383427;26;20404;-62
2024/04/12 05:52:52;;;;;;;23.25;12.18;;;7.90;81.50;;;;;;5411599;26;19983;-62
2024/04/12 05:55:19;;;;;;;24.45;12.73;;;8.00;80.10;;;;;;5412993;26;19996;-60
2024/04/12 05:57:47;;;;;;;27.15;14.25;;;8.00;80.50;;;;;;5374316;26;20000;-62
2024/04/12 06:00:12;;;;;;;22.52;12.57;;;8.00;80.50;;;;;;5402206;26;20445;-62
2024/04/12 06:02:43;;;;;;;22.90;13.10;;;8.10;80.60;;;;;;5410063;26;19992;-62
2024/04/12 06:05:09;;;;;;;27.50;13.35;;;8.20;80.80;;;;;;5403692;26;20000;-63
2024/04/12 06:07:37;;;;;;;22.77;13.13;;;8.30;80.80;;;;;;5409871;26;20457;-62
2024/04/12 06:10:04;;;;;;;22.17;12.35;;;8.40;81.00;;;;;;5403822;26;20006;-63
2024/04/12 06:12:34;;;;;;;21.58;12.60;;;8.40;81.00;;;;;;5407585;26;19999;-61
2024/04/12 06:15:05;;;;;;;24.35;12.23;;;8.50;80.90;;;;;;5404000;26;20072;-63
2024/04/12 06:17:30;;;;;;;19.05;12.55;;;8.60;81.30;;;;;;5409334;26;20323;-63
2024/04/12 06:19:59;;;;;;;25.80;14.02;;;8.70;81.20;;;;;;5406227;26;20015;-61
2024/04/12 06:22:26;;;;;;;20.73;13.80;;;8.70;81.90;;;;;;5397342;26;20010;-61
2024/04/12 06:24:52;;;;;;;22.65;13.98;;;8.80;81.40;;;;;;5407216;26;20059;-62
2024/04/12 06:27:29;;;;;;;20.95;12.88;;;8.90;81.40;;;;;;5408543;26;20004;-59
2024/04/12 06:30:01;;;;;;;18.67;12.75;;;9.00;81.50;;;;;;5405396;26;20335;-61
2024/04/12 06:32:27;;;;;;;21.42;12.65;;;9.00;81.60;;;;;;5408573;26;19995;-62
2024/04/12 06:34:53;;;;;;;19.02;12.07;;;9.20;81.50;;;;;;5407527;26;20007;-61
2024/04/12 06:37:21;;;;;;;20.23;12.27;;;9.20;81.50;;;;;;5408645;26;20478;-62
2024/04/12 06:39:48;;;;;;;21.05;11.98;;;9.30;81.80;;;;;;5409522;26;20348;-61
2024/04/12 06:42:15;;;;;;;18.92;11.70;;;9.40;81.90;;;;;;5407542;26;20081;-63
2024/04/12 06:44:48;;;;;;;16.48;11.13;;;9.50;81.80;;;;;;5403099;26;19995;-62
2024/04/12 06:47:18;;;;;;;17.40;12.70;;;9.50;81.80;;;;;;5409932;26;20002;-62
2024/04/12 06:49:47;;;;;;;25.35;12.85;;;9.70;81.90;;;;;;5405840;26;19996;-62
2024/04/12 06:52:14;;;;;;;16.75;11.15;;;9.80;81.90;;;;;;5410020;26;20002;-61
2024/04/12 06:54:42;;;;;;;17.35;11.88;;;9.80;81.90;;;;;;5408045;26;19992;-61
2024/04/12 06:57:18;;;;;;;20.50;11.20;;;10.00;81.90;;;;;;5406887;26;19995;-63
2024/04/12 06:59:47;;;;;;;18.92;12.38;;;10.10;82.00;;;;;;5399677;26;20000;-63
2024/04/12 07:02:14;;;;;;;18.92;12.57;;;10.10;81.80;;;;;;5407146;26;20482;-61
2024/04/12 07:04:40;;;;;;;19.35;11.35;;;10.20;81.90;;;;;;5403735;26;20085;-63
2024/04/12 07:07:07;;;;;;;18.15;11.77;;;10.30;81.70;;;;;;5403414;26;20024;-60
2024/04/12 07:09:33;;;;;;;17.45;11.52;;;10.40;81.60;;;;;;5405244;26;20008;-63
2024/04/12 07:12:05;;;;;;;19.38;12.50;;;10.50;81.60;;;;;;5406416;26;20458;-62
2024/04/12 07:14:37;;;;;;;20.20;12.10;;;10.60;81.50;;;;;;5406172;26;19991;-63
2024/04/12 07:17:19;;;;;;;63.45;22.80;;;10.70;81.50;;;;;;5404942;26;20484;-63
2024/04/12 07:19:51;;;;;;;86.22;65.22;;;10.70;81.70;;;;;;5407729;26;19996;-62
2024/04/12 07:22:20;;;;;;;24.30;19.27;;;10.90;82.20;;;;;;5402390;26;20043;-63
2024/04/12 07:24:50;;;;;;;18.05;13.90;;;11.00;82.70;;;;;;5401607;26;20097;-61
2024/04/12 07:27:17;;;;;;;16.55;11.05;;;11.10;83.40;;;;;;5406541;26;20027;-62
2024/04/12 07:29:46;;;;;;;14.25;11.27;;;11.20;82.70;;;;;;5403788;26;20041;-63
2024/04/12 07:32:13;;;;;;;12.40;10.93;;;11.30;82.30;;;;;;5404123;26;19999;-62
2024/04/12 07:34:49;;;;;;;15.07;10.77;;;11.40;81.90;;;;;;5411151;26;20010;-63
2024/04/12 07:37:27;;;;;;;16.02;11.50;;;11.50;81.80;;;;;;5406174;26;20007;-63
2024/04/12 07:40:24;;;;;;;18.33;11.43;;;11.60;82.30;;;;;;5400068;26;19999;-62
2024/04/12 07:42:52;;;;;;;14.68;11.20;;;11.70;82.90;;;;;;5400997;26;20013;-62
2024/04/12 07:45:23;;;;;;;13.70;10.93;;;11.90;82.70;;;;;;5401977;26;20837;-62
2024/04/12 07:47:53;;;;;;;15.65;11.32;;;12.00;82.50;;;;;;5407961;26;20007;-63
2024/04/12 07:50:29;;;;;;;14.93;10.93;;;12.10;81.90;;;;;;5407680;26;20460;-63
2024/04/12 07:53:10;;;;;;;15.05;10.93;;;12.20;81.50;;;;;;5406762;26;20421;-62
2024/04/12 07:55:41;;;;;;;17.17;11.43;;;12.30;81.30;;;;;;5398752;26;20003;-63
2024/04/12 07:58:12;;;;;;;16.83;11.93;;;12.40;80.50;;;;;;5403891;26;19999;-62
2024/04/12 08:00:47;;;;;;;15.80;11.60;;;12.50;80.00;;;;;;5399417;26;20596;-60
2024/04/12 08:03:16;;;;;;;17.08;12.20;;;12.60;79.80;;;;;;5405983;26;19996;-62
2024/04/12 08:05:59;;;;;;;16.85;11.73;;;12.70;79.20;;;;;;5401647;26;20006;-62
2024/04/12 08:08:28;;;;;;;14.35;11.82;;;12.80;78.60;;;;;;5404963;26;19995;-63
2024/04/12 08:10:56;;;;;;;16.25;11.38;;;12.90;78.00;;;;;;5408671;26;19999;-63
2024/04/12 08:13:28;;;;;;;16.52;10.88;;;13.00;77.90;;;;;;5398196;26;20026;-61
2024/04/12 08:15:59;;;;;;;14.65;11.02;;;13.00;77.90;;;;;;5405659;26;20006;-63
2024/04/12 08:18:26;;;;;;;14.70;10.57;;;13.10;77.70;;;;;;5394436;26;20004;-61
2024/04/12 08:21:01;;;;;;;19.88;13.75;;;13.20;77.50;;;;;;5409861;26;20389;-62
2024/04/12 08:23:29;;;;;;;21.25;16.13;;;13.30;77.50;;;;;;5404790;26;20072;-63
2024/04/12 08:25:58;;;;;;;12.80;11.20;;;13.40;77.40;;;;;;5410800;26;20451;-64
2024/04/12 08:28:27;;;;;;;15.05;11.52;;;13.50;77.20;;;;;;5400013;26;20011;-62
2024/04/12 08:30:53;;;;;;;14.93;12.45;;;13.60;77.00;;;;;;5407142;26;20003;-62
2024/04/12 08:33:24;;;;;;;12.75;11.02;;;13.70;76.80;;;;;;5406805;26;20022;-63
2024/04/12 08:35:55;;;;;;;12.77;10.93;;;13.90;76.60;;;;;;5409998;26;20331;-63
2024/04/12 08:38:24;;;;;;;13.75;11.10;;;13.90;76.10;;;;;;5401232;26;20029;-63
2024/04/12 08:40:52;;;;;;;13.35;10.25;;;14.10;75.90;;;;;;5406319;26;20015;-63
2024/04/12 08:43:19;;;;;;;11.75;10.35;;;14.10;75.70;;;;;;5403785;26;20076;-67
2024/04/12 08:45:47;;;;;;;17.35;12.20;;;14.30;75.50;;;;;;5409101;26;20439;-61
2024/04/12 08:48:15;;;;;;;15.68;11.77;;;14.30;76.00;;;;;;5407259;26;20039;-63
2024/04/12 08:50:41;;;;;;;15.27;11.38;;;14.40;74.90;;;;;;5411060;26;20335;-62
2024/04/12 08:53:13;;;;;;;12.43;10.82;;;14.50;74.70;;;;;;5408087;26;20004;-62
2024/04/12 08:55:42;;;;;;;14.02;11.15;;;14.60;74.20;;;;;;5411779;26;20387;-63
2024/04/12 08:58:10;;;;;;;14.02;11.40;;;14.70;74.20;;;;;;5406262;26;20004;-62
2024/04/12 09:00:38;;;;;;;15.98;12.20;;;14.80;74.00;;;;;;5405635;26;20066;-62
2024/04/12 09:03:24;;;;;;;13.32;10.68;;;14.80;73.80;;;;;;5409125;26;20000;-63
2024/04/12 09:05:52;;;;;;;13.35;10.63;;;15.00;73.70;;;;;;5407124;26;20011;-64
2024/04/12 09:08:18;;;;;;;13.35;10.70;;;15.00;73.40;;;;;;5407782;26;20509;-63
2024/04/12 09:10:45;;;;;;;12.60;11.25;;;15.10;72.90;;;;;;5405821;26;20015;-62
2024/04/12 09:13:14;;;;;;;16.52;11.55;;;15.20;72.90;;;;;;5407148;26;20016;-62
2024/04/12 09:15:45;;;;;;;17.00;11.63;;;15.30;72.70;;;;;;5404895;26;20008;-63
2024/04/12 09:18:15;;;;;;;13.60;11.48;;;15.40;72.60;;;;;;5409577;26;20445;-63
2024/04/12 09:20:46;;;;;;;13.20;11.68;;;15.50;72.30;;;;;;5399988;26;20011;-62
2024/04/12 09:23:15;;;;;;;16.45;12.23;;;15.50;72.10;;;;;;5411666;26;20008;-63
2024/04/12 09:25:54;;;;;;;17.63;11.35;;;15.60;71.60;;;;;;5405541;26;20028;-61
2024/04/12 09:28:26;;;;;;;17.88;11.68;;;15.70;71.70;;;;;;5407575;26;20371;-63
2024/04/12 09:33:50;;;;;;;12.68;10.82;;;15.80;71.30;;;;;;5398418;26;20068;-62
2024/04/12 09:36:38;;;;;;;14.45;11.73;;;15.90;70.90;;;;;;5406117;26;20044;-63
2024/04/12 09:39:16;;;;;;;15.10;11.45;;;16.00;70.30;;;;;;5402612;26;19995;-63
2024/04/12 09:41:53;;;;;;;13.93;11.05;;;16.00;71.50;;;;;;5408288;26;19996;-63
2024/04/12 09:44:26;;;;;;;13.10;10.60;;;16.10;70.40;;;;;;5402960;26;20003;-63
2024/04/12 10:39:49;;;;;;;9.38;6.85;;;18.10;63.60;;;;;;5404695;26;20010;-63
2024/04/12 10:42:19;;;;;;;;;;;18.10;64.00;;;;;;5411293;26;20014;-64
2024/04/12 10:44:49;;;;;;;8.63;6.72;;;18.20;64.50;;;;;;5404828;26;19925;-64
2024/04/12 10:47:20;;;;;;;8.95;6.85;;;18.20;64.60;;;;;;5406529;26;20011;-62
2024/04/12 10:49:46;;;;;;;8.07;6.63;;;18.30;64.00;;;;;;5405614;26;20018;-64
2024/04/12 10:52:14;;;;;;;8.30;6.97;;;18.30;64.10;;;;;;5406432;26;19994;-62
2024/04/12 10:54:47;;;;;;;9.85;7.85;;;18.30;63.60;;;;;;5403918;26;19991;-63
2024/04/12 10:57:18;;;;;;;10.00;7.32;;;18.40;62.00;;;;;;5402591;26;19991;-63
2024/04/12 10:59:44;;;;;;;14.43;8.23;;;18.40;62.40;;;;;;5404831;26;19996;-63
2024/04/12 11:02:13;;;;;;;9.20;6.22;;;18.40;62.40;;;;;;5405445;26;20039;-63
2024/04/12 11:07:23;;;;;;;5.50;4.97;;;18.50;61.70;;;;;;5404078;26;20363;-64
2024/04/12 11:10:03;;;;;;;6.65;6.00;;;18.50;61.60;;;;;;5407455;26;19999;-64
2024/04/12 11:12:30;;;;;;;8.02;6.75;;;18.60;61.20;;;;;;5395981;26;20427;-63
2024/04/12 11:31:28;;;;;;;8.98;6.43;;;19.00;59.10;;;;;;5408837;26;20006;-62
2024/04/12 11:33:55;;;;;;;9.02;5.68;;;19.00;57.80;;;;;;5402829;26;19999;-61
2024/04/12 11:36:21;;;;;;;8.30;5.78;;;19.00;58.90;;;;;;5373934;26;20006;-59
2024/04/12 11:38:48;;;;;;;6.32;5.72;;;19.10;59.20;;;;;;5405248;26;20018;-60
2024/04/12 11:41:15;;;;;;;7.22;5.80;;;19.20;59.10;;;;;;5407605;26;20512;-61
2024/04/12 11:43:45;;;;;;;6.07;5.57;;;19.20;58.70;;;;;;5402344;26;20004;-61
2024/04/12 11:46:19;;;;;;;8.32;6.05;;;19.30;57.30;;;;;;5400886;26;20440;-61
2024/04/12 11:48:45;;;;;;;9.00;5.38;;;19.30;57.80;;;;;;5402749;26;20007;-61
2024/04/12 11:51:15;;;;;;;8.43;5.00;;;19.40;58.00;;;;;;5405032;26;20015;-63
2024/04/12 11:53:42;;;;;;;7.57;5.88;;;19.40;58.00;;;;;;5399992;26;20472;-63
2024/04/12 11:56:09;;;;;;;7.47;5.75;;;19.50;56.90;;;;;;5401645;26;19999;-61
2024/04/12 11:58:35;;;;;;;8.68;6.53;;;19.60;57.30;;;;;;5405980;26;20073;-61
2024/04/12 12:01:04;;;;;;;7.38;6.68;;;19.60;57.00;;;;;;5407837;26;20454;-62
2024/04/12 12:03:30;;;;;;;8.07;6.03;;;19.70;56.70;;;;;;5407744;26;20076;-61
2024/04/12 12:06:06;;;;;;;6.93;6.22;;;19.70;57.10;;;;;;5410367;26;20406;-60
2024/04/12 12:08:41;;;;;;;7.97;5.60;;;19.80;57.10;;;;;;5406752;26;20064;-62
2024/04/12 12:11:10;;;;;;;7.03;5.57;;;19.80;57.60;;;;;;5399929;26;20399;-62
2024/04/12 12:13:36;;;;;;;8.07;5.70;;;19.90;57.80;;;;;;5403545;26;20439;-62
2024/04/12 12:16:03;;;;;;;7.68;6.22;;;20.00;57.30;;;;;;5406156;26;20070;-63
2024/04/12 12:18:29;;;;;;;8.55;6.43;;;20.20;57.00;;;;;;5411154;26;20068;-62
2024/04/12 12:20:56;;;;;;;9.10;6.28;;;20.20;56.50;;;;;;5388660;26;20460;-60
2024/04/12 12:23:24;;;;;;;7.28;5.97;;;20.30;56.20;;;;;;5397565;26;19999;-61
2024/04/12 12:25:51;;;;;;;9.07;5.70;;;20.40;56.10;;;;;;5409015;26;20462;-62
2024/04/12 12:28:17;;;;;;;7.80;6.82;;;20.50;56.00;;;;;;5407928;26;20593;-60
2024/04/12 12:30:47;;;;;;;7.20;6.50;;;20.50;56.00;;;;;;5416204;26;19991;-61
2024/04/12 12:33:13;;;;;;;6.95;6.25;;;20.60;55.90;;;;;;5409061;26;19996;-61
2024/04/12 12:35:42;;;;;;;7.25;6.55;;;20.60;55.80;;;;;;5410209;26;20004;-62
2024/04/12 12:38:11;;;;;;;10.82;6.55;;;20.60;55.60;;;;;;5407201;26;20027;-62
2024/04/12 12:40:38;;;;;;;9.10;7.43;;;20.70;55.50;;;;;;5404786;26;20015;-62
2024/04/12 12:43:04;;;;;;;9.60;7.32;;;20.70;55.30;;;;;;5407457;26;19995;-60
2024/04/12 12:45:33;;;;;;;9.52;6.43;;;20.80;55.10;;;;;;5407087;26;19995;-62
2024/04/12 12:47:58;;;;;;;7.80;6.43;;;20.80;55.10;;;;;;5405117;26;19996;-62
2024/04/12 12:50:24;;;;;;;9.95;7.75;;;20.80;55.10;;;;;;5408314;26;20008;-62
2024/04/12 12:52:51;;;;;;;8.63;7.70;;;20.80;54.80;;;;;;5409966;26;20035;-62
2024/04/12 12:55:22;;;;;;;10.95;7.28;;;20.90;54.50;;;;;;5404734;26;20018;-62
2024/04/12 12:58:11;;;;;;;8.68;7.68;;;20.90;53.60;;;;;;5406966;26;19995;-62
2024/04/12 13:00:40;;;;;;;9.65;7.53;;;20.80;53.30;;;;;;5401802;26;20006;-63
2024/04/12 13:03:11;;;;;;;7.93;7.03;;;20.90;54.00;;;;;;5405511;26;19996;-63
2024/04/12 13:05:38;;;;;;;8.30;6.53;;;20.90;54.20;;;;;;5411629;26;19996;-63
2024/04/12 13:08:05;;;;;;;7.60;6.47;;;20.90;54.30;;;;;;5406100;26;20010;-60
2024/04/12 13:10:33;;;;;;;7.85;6.70;;;20.90;54.30;;;;;;5409380;26;20006;-61
2024/04/12 13:13:06;;;;;;;10.50;7.05;;;20.90;54.10;;;;;;5400562;26;20011;-62
2024/04/12 13:15:32;;;;;;;8.68;7.05;;;20.90;53.40;;;;;;5409151;26;20479;-63
2024/04/12 13:17:58;;;;;;;8.57;6.53;;;21.00;53.80;;;;;;5405043;26;19995;-62
2024/04/12 13:20:23;;;;;;;8.05;6.72;;;21.00;54.00;;;;;;5404658;26;19996;-63
2024/04/12 13:22:49;;;;;;;9.82;6.93;;;21.00;53.70;;;;;;5403362;26;20011;-62
2024/04/12 13:25:16;;;;;;;8.98;6.80;;;21.00;53.50;;;;;;5407394;26;20028;-63
2024/04/12 13:27:46;;;;;;;7.43;6.72;;;21.00;53.50;;;;;;5406001;26;20018;-61
2024/04/12 13:30:14;;;;;;;10.27;6.70;;;21.00;53.50;;;;;;5409966;26;20347;-60
2024/04/12 13:32:47;;;;;;;8.40;6.43;;;21.00;53.00;;;;;;5408019;26;20062;-59
2024/04/12 13:35:13;;;;;;;6.28;5.68;;;21.00;52.00;;;;;;5409288;26;20458;-61
2024/04/12 13:37:39;;;;;;;7.53;6.20;;;21.00;51.60;;;;;;5404645;26;19999;-61
2024/04/12 13:40:08;;;;;;;6.70;5.80;;;21.00;51.90;;;;;;5404707;26;20004;-62
2024/04/12 13:42:39;;;;;;;8.40;5.55;;;21.10;52.10;;;;;;5407445;26;20000;-60
2024/04/12 13:53:19;;;;;;;8.45;5.50;;;21.10;51.80;;;;;;5407826;26;20006;-62
2024/04/12 13:55:46;;;;;;;6.50;5.05;;;21.20;52.00;;;;;;5407084;26;20003;-61
2024/04/12 13:58:12;;;;;;;6.80;5.18;;;21.20;52.10;;;;;;5403942;26;19996;-60
2024/04/12 14:00:48;;;;;;;6.85;5.00;;;21.20;52.00;;;;;;5403790;26;20039;-62
2024/04/12 14:03:21;;;;;;;6.45;4.88;;;21.30;52.20;;;;;;5401929;26;20344;-62
2024/04/12 14:05:53;;;;;;;5.43;4.28;;;21.30;52.00;;;;;;5403832;26;20000;-61
2024/04/12 14:08:20;;;;;;;7.68;3.83;;;21.40;51.60;;;;;;5401277;26;19996;-61
2024/04/12 14:10:46;;;;;;;4.97;3.97;;;21.40;51.40;;;;;;5393968;26;20077;-63
2024/04/12 14:13:19;;;;;;;6.35;3.30;;;21.40;51.20;;;;;;5404616;26;20002;-63
2024/04/12 14:15:47;;;;;;;4.68;2.50;;;21.50;50.90;;;;;;5399692;26;19999;-62
2024/04/12 14:18:14;;;;;;;2.70;2.50;;;21.50;50.50;;;;;;5407553;26;20481;-62
2024/04/12 14:20:40;;;;;;;4.97;2.58;;;21.50;50.10;;;;;;5407021;26;20010;-63